sensor_id;sensor_type;location;lat;lon;timestamp;temperature;humidity
71879;DHT22;59755;43.834;4.364;2023-04-26T00:01:07;14.60;44.20
71879;DHT22;59755;43.834;4.364;2023-04-26T00:03:32;14.70;44.30
71879;DHT22;59755;43.834;4.364;2023-04-26T00:05:58;14.60;44.20
71879;DHT22;59755;43.834;4.364;2023-04-26T00:08:29;14.60;44.20
71879;DHT22;59755;43.834;4.364;2023-04-26T00:10:55;14.60;44.40
71879;DHT22;59755;43.834;4.364;2023-04-26T00:13:21;14.60;44.50
71879;DHT22;59755;43.834;4.364;2023-04-26T00:15:46;14.50;44.90
71879;DHT22;59755;43.834;4.364;2023-04-26T00:18:12;14.40;45.20
71879;DHT22;59755;43.834;4.364;2023-04-26T00:20:37;14.30;45.40
71879;DHT22;59755;43.834;4.364;2023-04-26T00:23:03;14.30;45.40
71879;DHT22;59755;43.834;4.364;2023-04-26T00:25:29;14.30;45.70
71879;DHT22;59755;43.834;4.364;2023-04-26T00:27:54;14.30;45.50
71879;DHT22;59755;43.834;4.364;2023-04-26T00:30:20;14.30;45.70
71879;DHT22;59755;43.834;4.364;2023-04-26T00:32:46;14.30;45.60
71879;DHT22;59755;43.834;4.364;2023-04-26T00:35:12;14.30;45.60
71879;DHT22;59755;43.834;4.364;2023-04-26T00:37:37;14.20;45.80
71879;DHT22;59755;43.834;4.364;2023-04-26T00:40:03;14.20;46.00
71879;DHT22;59755;43.834;4.364;2023-04-26T00:42:30;14.10;46.30
71879;DHT22;59755;43.834;4.364;2023-04-26T00:44:56;14.10;46.40
71879;DHT22;59755;43.834;4.364;2023-04-26T00:47:23;14.10;46.30
71879;DHT22;59755;43.834;4.364;2023-04-26T00:49:49;14.10;46.30
71879;DHT22;59755;43.834;4.364;2023-04-26T00:52:14;14.10;46.40
71879;DHT22;59755;43.834;4.364;2023-04-26T00:54:40;14.00;46.40
71879;DHT22;59755;43.834;4.364;2023-04-26T00:57:06;14.00;46.70
71879;DHT22;59755;43.834;4.364;2023-04-26T00:59:34;13.90;46.80
71879;DHT22;59755;43.834;4.364;2023-04-26T01:02:03;13.90;47.00
71879;DHT22;59755;43.834;4.364;2023-04-26T01:04:29;13.80;47.20
71879;DHT22;59755;43.834;4.364;2023-04-26T01:06:55;13.70;47.10
71879;DHT22;59755;43.834;4.364;2023-04-26T01:09:21;13.70;47.00
71879;DHT22;59755;43.834;4.364;2023-04-26T01:11:47;13.80;46.70
71879;DHT22;59755;43.834;4.364;2023-04-26T01:14:13;13.80;46.60
71879;DHT22;59755;43.834;4.364;2023-04-26T01:16:39;13.80;46.90
71879;DHT22;59755;43.834;4.364;2023-04-26T01:19:08;13.70;47.10
71879;DHT22;59755;43.834;4.364;2023-04-26T01:21:36;13.70;47.20
71879;DHT22;59755;43.834;4.364;2023-04-26T01:24:02;13.60;47.30
71879;DHT22;59755;43.834;4.364;2023-04-26T01:26:28;13.50;47.60
71879;DHT22;59755;43.834;4.364;2023-04-26T01:28:53;13.50;47.60
71879;DHT22;59755;43.834;4.364;2023-04-26T01:31:19;13.40;47.80
71879;DHT22;59755;43.834;4.364;2023-04-26T01:33:45;13.50;47.90
71879;DHT22;59755;43.834;4.364;2023-04-26T01:36:11;13.40;47.90
71879;DHT22;59755;43.834;4.364;2023-04-26T01:38:36;13.40;48.00
71879;DHT22;59755;43.834;4.364;2023-04-26T01:41:02;13.40;47.80
71879;DHT22;59755;43.834;4.364;2023-04-26T01:43:27;13.40;47.90
71879;DHT22;59755;43.834;4.364;2023-04-26T01:45:53;13.40;47.70
71879;DHT22;59755;43.834;4.364;2023-04-26T01:48:18;13.30;48.10
71879;DHT22;59755;43.834;4.364;2023-04-26T01:50:44;13.30;48.00
71879;DHT22;59755;43.834;4.364;2023-04-26T01:53:10;13.30;47.90
71879;DHT22;59755;43.834;4.364;2023-04-26T01:55:35;13.40;47.60
71879;DHT22;59755;43.834;4.364;2023-04-26T01:58:01;13.40;47.40
71879;DHT22;59755;43.834;4.364;2023-04-26T02:00:27;13.40;47.50
71879;DHT22;59755;43.834;4.364;2023-04-26T02:02:53;13.40;47.40
71879;DHT22;59755;43.834;4.364;2023-04-26T02:05:19;13.40;47.60
71879;DHT22;59755;43.834;4.364;2023-04-26T02:07:44;13.30;47.80
71879;DHT22;59755;43.834;4.364;2023-04-26T02:10:10;13.30;47.60
71879;DHT22;59755;43.834;4.364;2023-04-26T02:12:35;13.30;47.60
71879;DHT22;59755;43.834;4.364;2023-04-26T02:15:01;13.30;47.60
71879;DHT22;59755;43.834;4.364;2023-04-26T02:17:26;13.30;47.70
71879;DHT22;59755;43.834;4.364;2023-04-26T02:19:53;13.30;47.50
71879;DHT22;59755;43.834;4.364;2023-04-26T02:22:19;13.20;47.80
71879;DHT22;59755;43.834;4.364;2023-04-26T02:24:48;13.20;47.80
71879;DHT22;59755;43.834;4.364;2023-04-26T02:27:14;13.20;47.80
71879;DHT22;59755;43.834;4.364;2023-04-26T02:29:40;13.20;47.80
71879;DHT22;59755;43.834;4.364;2023-04-26T02:32:05;13.10;48.10
71879;DHT22;59755;43.834;4.364;2023-04-26T02:34:31;13.10;48.00
71879;DHT22;59755;43.834;4.364;2023-04-26T02:36:57;13.10;48.00
71879;DHT22;59755;43.834;4.364;2023-04-26T02:39:23;13.10;48.00
71879;DHT22;59755;43.834;4.364;2023-04-26T02:41:48;13.20;47.60
71879;DHT22;59755;43.834;4.364;2023-04-26T02:44:14;13.20;47.50
71879;DHT22;59755;43.834;4.364;2023-04-26T02:46:39;13.30;47.30
71879;DHT22;59755;43.834;4.364;2023-04-26T02:54:21;13.30;47.10
71879;DHT22;59755;43.834;4.364;2023-04-26T02:56:47;13.30;47.10
71879;DHT22;59755;43.834;4.364;2023-04-26T02:59:13;13.40;46.70
71879;DHT22;59755;43.834;4.364;2023-04-26T03:01:38;13.40;46.70
71879;DHT22;59755;43.834;4.364;2023-04-26T03:04:04;13.50;46.70
71879;DHT22;59755;43.834;4.364;2023-04-26T03:06:30;13.40;46.40
71879;DHT22;59755;43.834;4.364;2023-04-26T03:08:55;13.50;46.20
71879;DHT22;59755;43.834;4.364;2023-04-26T03:11:21;13.40;46.40
71879;DHT22;59755;43.834;4.364;2023-04-26T03:13:47;13.40;46.60
71879;DHT22;59755;43.834;4.364;2023-04-26T03:16:12;13.40;46.70
71879;DHT22;59755;43.834;4.364;2023-04-26T03:18:38;13.30;47.00
71879;DHT22;59755;43.834;4.364;2023-04-26T03:21:03;13.30;47.20
71879;DHT22;59755;43.834;4.364;2023-04-26T03:23:29;13.20;47.40
71879;DHT22;59755;43.834;4.364;2023-04-26T03:25:55;13.10;47.60
71879;DHT22;59755;43.834;4.364;2023-04-26T03:28:20;13.00;47.90
71879;DHT22;59755;43.834;4.364;2023-04-26T03:30:46;13.00;48.30
71879;DHT22;59755;43.834;4.364;2023-04-26T03:33:14;13.00;48.20
71879;DHT22;59755;43.834;4.364;2023-04-26T03:35:41;13.00;48.40
71879;DHT22;59755;43.834;4.364;2023-04-26T03:38:07;13.10;48.50
71879;DHT22;59755;43.834;4.364;2023-04-26T03:40:33;13.10;48.40
71879;DHT22;59755;43.834;4.364;2023-04-26T03:42:58;13.10;48.20
71879;DHT22;59755;43.834;4.364;2023-04-26T03:45:24;13.00;48.40
71879;DHT22;59755;43.834;4.364;2023-04-26T03:47:51;12.90;48.70
71879;DHT22;59755;43.834;4.364;2023-04-26T03:50:16;12.90;48.90
71879;DHT22;59755;43.834;4.364;2023-04-26T03:52:43;12.90;49.00
71879;DHT22;59755;43.834;4.364;2023-04-26T03:55:08;13.00;48.90
71879;DHT22;59755;43.834;4.364;2023-04-26T03:57:36;12.90;48.80
71879;DHT22;59755;43.834;4.364;2023-04-26T04:00:02;12.90;49.10
71879;DHT22;59755;43.834;4.364;2023-04-26T04:02:31;12.90;49.00
71879;DHT22;59755;43.834;4.364;2023-04-26T04:04:57;12.90;48.60
71879;DHT22;59755;43.834;4.364;2023-04-26T04:07:23;13.00;48.70
71879;DHT22;59755;43.834;4.364;2023-04-26T04:09:49;12.90;48.80
71879;DHT22;59755;43.834;4.364;2023-04-26T04:12:14;12.90;48.70
71879;DHT22;59755;43.834;4.364;2023-04-26T04:14:40;12.90;48.80
71879;DHT22;59755;43.834;4.364;2023-04-26T04:17:06;12.90;48.80
71879;DHT22;59755;43.834;4.364;2023-04-26T04:19:32;12.90;48.90
71879;DHT22;59755;43.834;4.364;2023-04-26T04:21:58;12.90;49.20
71879;DHT22;59755;43.834;4.364;2023-04-26T04:24:23;12.90;49.20
71879;DHT22;59755;43.834;4.364;2023-04-26T04:26:50;12.90;49.20
71879;DHT22;59755;43.834;4.364;2023-04-26T04:29:15;12.80;49.20
71879;DHT22;59755;43.834;4.364;2023-04-26T04:31:41;12.80;49.60
71879;DHT22;59755;43.834;4.364;2023-04-26T04:34:06;12.80;49.70
71879;DHT22;59755;43.834;4.364;2023-04-26T04:36:33;12.70;49.60
71879;DHT22;59755;43.834;4.364;2023-04-26T04:38:58;12.80;49.60
71879;DHT22;59755;43.834;4.364;2023-04-26T04:41:24;12.70;49.80
71879;DHT22;59755;43.834;4.364;2023-04-26T04:43:49;12.70;49.80
71879;DHT22;59755;43.834;4.364;2023-04-26T04:46:15;12.70;49.80
71879;DHT22;59755;43.834;4.364;2023-04-26T04:48:41;12.80;49.80
71879;DHT22;59755;43.834;4.364;2023-04-26T04:51:07;12.80;49.80
71879;DHT22;59755;43.834;4.364;2023-04-26T04:53:33;12.70;50.10
71879;DHT22;59755;43.834;4.364;2023-04-26T04:55:59;12.70;50.20
71879;DHT22;59755;43.834;4.364;2023-04-26T04:58:24;12.60;50.30
71879;DHT22;59755;43.834;4.364;2023-04-26T05:00:50;12.60;50.50
71879;DHT22;59755;43.834;4.364;2023-04-26T05:03:18;12.60;50.40
71879;DHT22;59755;43.834;4.364;2023-04-26T05:05:44;12.50;50.80
71879;DHT22;59755;43.834;4.364;2023-04-26T05:08:09;12.50;50.80
71879;DHT22;59755;43.834;4.364;2023-04-26T05:10:35;12.50;51.10
71879;DHT22;59755;43.834;4.364;2023-04-26T05:13:01;12.40;51.00
71879;DHT22;59755;43.834;4.364;2023-04-26T05:15:27;12.40;51.30
71879;DHT22;59755;43.834;4.364;2023-04-26T05:17:52;12.50;51.20
71879;DHT22;59755;43.834;4.364;2023-04-26T05:20:20;12.50;51.10
71879;DHT22;59755;43.834;4.364;2023-04-26T05:22:45;12.60;51.10
71879;DHT22;59755;43.834;4.364;2023-04-26T05:25:11;12.50;51.20
71879;DHT22;59755;43.834;4.364;2023-04-26T05:27:38;12.50;51.40
71879;DHT22;59755;43.834;4.364;2023-04-26T05:30:04;12.60;51.30
71879;DHT22;59755;43.834;4.364;2023-04-26T05:32:30;12.70;51.10
71879;DHT22;59755;43.834;4.364;2023-04-26T05:34:55;12.60;51.30
71879;DHT22;59755;43.834;4.364;2023-04-26T05:37:21;12.60;51.20
71879;DHT22;59755;43.834;4.364;2023-04-26T05:39:47;12.60;51.50
71879;DHT22;59755;43.834;4.364;2023-04-26T05:42:13;12.60;51.60
71879;DHT22;59755;43.834;4.364;2023-04-26T05:44:39;12.60;51.50
71879;DHT22;59755;43.834;4.364;2023-04-26T05:47:05;12.80;51.30
71879;DHT22;59755;43.834;4.364;2023-04-26T05:49:30;12.80;51.10
71879;DHT22;59755;43.834;4.364;2023-04-26T05:51:59;12.80;51.30
71879;DHT22;59755;43.834;4.364;2023-04-26T05:54:25;12.90;51.20
71879;DHT22;59755;43.834;4.364;2023-04-26T05:56:50;12.90;51.40
71879;DHT22;59755;43.834;4.364;2023-04-26T05:59:16;12.90;51.50
71879;DHT22;59755;43.834;4.364;2023-04-26T06:01:42;13.00;51.30
71879;DHT22;59755;43.834;4.364;2023-04-26T06:04:08;13.10;51.30
71879;DHT22;59755;43.834;4.364;2023-04-26T06:06:33;13.20;51.00
71879;DHT22;59755;43.834;4.364;2023-04-26T06:08:59;13.30;50.90
71879;DHT22;59755;43.834;4.364;2023-04-26T06:11:25;13.40;50.50
71879;DHT22;59755;43.834;4.364;2023-04-26T06:13:51;13.40;50.60
71879;DHT22;59755;43.834;4.364;2023-04-26T06:16:16;13.50;50.50
71879;DHT22;59755;43.834;4.364;2023-04-26T06:18:42;13.60;50.80
71879;DHT22;59755;43.834;4.364;2023-04-26T06:21:08;13.70;50.50
71879;DHT22;59755;43.834;4.364;2023-04-26T06:23:33;13.70;50.60
71879;DHT22;59755;43.834;4.364;2023-04-26T06:25:59;13.80;50.40
71879;DHT22;59755;43.834;4.364;2023-04-26T06:28:25;13.90;50.40
71879;DHT22;59755;43.834;4.364;2023-04-26T06:30:50;13.90;50.20
71879;DHT22;59755;43.834;4.364;2023-04-26T06:33:16;14.00;50.00
71879;DHT22;59755;43.834;4.364;2023-04-26T06:35:41;14.10;50.00
71879;DHT22;59755;43.834;4.364;2023-04-26T06:38:07;14.20;50.00
71879;DHT22;59755;43.834;4.364;2023-04-26T06:40:33;14.30;49.20
71879;DHT22;59755;43.834;4.364;2023-04-26T06:43:01;14.40;49.20
71879;DHT22;59755;43.834;4.364;2023-04-26T06:45:27;14.50;48.70
71879;DHT22;59755;43.834;4.364;2023-04-26T06:47:53;14.60;48.40
71879;DHT22;59755;43.834;4.364;2023-04-26T06:50:18;14.60;47.90
71879;DHT22;59755;43.834;4.364;2023-04-26T06:52:44;14.70;47.80
71879;DHT22;59755;43.834;4.364;2023-04-26T06:55:10;14.70;47.70
71879;DHT22;59755;43.834;4.364;2023-04-26T06:57:35;14.70;47.60
71879;DHT22;59755;43.834;4.364;2023-04-26T07:00:02;14.80;47.80
71879;DHT22;59755;43.834;4.364;2023-04-26T07:02:28;14.90;47.40
71879;DHT22;59755;43.834;4.364;2023-04-26T07:04:54;14.90;47.30
71879;DHT22;59755;43.834;4.364;2023-04-26T07:07:20;15.00;47.10
71879;DHT22;59755;43.834;4.364;2023-04-26T07:09:45;15.10;47.20
71879;DHT22;59755;43.834;4.364;2023-04-26T07:12:11;15.20;46.80
71879;DHT22;59755;43.834;4.364;2023-04-26T07:14:37;15.30;46.40
71879;DHT22;59755;43.834;4.364;2023-04-26T07:17:05;15.40;46.00
71879;DHT22;59755;43.834;4.364;2023-04-26T07:19:31;15.50;45.60
71879;DHT22;59755;43.834;4.364;2023-04-26T07:21:56;15.60;45.10
71879;DHT22;59755;43.834;4.364;2023-04-26T07:24:22;15.60;45.40
71879;DHT22;59755;43.834;4.364;2023-04-26T07:26:48;15.70;44.90
71879;DHT22;59755;43.834;4.364;2023-04-26T07:29:13;15.70;44.70
71879;DHT22;59755;43.834;4.364;2023-04-26T07:31:39;15.80;44.90
71879;DHT22;59755;43.834;4.364;2023-04-26T07:34:05;15.90;44.80
71879;DHT22;59755;43.834;4.364;2023-04-26T07:36:30;16.00;44.90
71879;DHT22;59755;43.834;4.364;2023-04-26T07:38:56;16.00;44.40
71879;DHT22;59755;43.834;4.364;2023-04-26T07:41:22;16.10;43.50
71879;DHT22;59755;43.834;4.364;2023-04-26T07:43:48;16.20;43.20
71879;DHT22;59755;43.834;4.364;2023-04-26T07:46:13;16.30;42.90
71879;DHT22;59755;43.834;4.364;2023-04-26T07:48:39;16.30;42.50
71879;DHT22;59755;43.834;4.364;2023-04-26T07:51:11;16.40;43.00
71879;DHT22;59755;43.834;4.364;2023-04-26T07:53:37;16.50;42.70
71879;DHT22;59755;43.834;4.364;2023-04-26T07:56:03;16.50;42.70
71879;DHT22;59755;43.834;4.364;2023-04-26T07:58:29;16.60;42.80
71879;DHT22;59755;43.834;4.364;2023-04-26T08:00:57;16.70;42.10
71879;DHT22;59755;43.834;4.364;2023-04-26T08:03:23;16.70;42.20
71879;DHT22;59755;43.834;4.364;2023-04-26T08:05:48;16.80;41.40
71879;DHT22;59755;43.834;4.364;2023-04-26T08:08:14;16.90;41.20
71879;DHT22;59755;43.834;4.364;2023-04-26T08:10:40;16.90;41.40
71879;DHT22;59755;43.834;4.364;2023-04-26T08:13:07;17.00;41.80
71879;DHT22;59755;43.834;4.364;2023-04-26T08:15:32;17.10;41.20
71879;DHT22;59755;43.834;4.364;2023-04-26T08:17:58;17.20;41.00
71879;DHT22;59755;43.834;4.364;2023-04-26T08:20:23;17.30;40.90
71879;DHT22;59755;43.834;4.364;2023-04-26T08:22:53;17.40;39.80
71879;DHT22;59755;43.834;4.364;2023-04-26T08:25:19;17.40;40.10
71879;DHT22;59755;43.834;4.364;2023-04-26T08:27:45;17.50;40.20
71879;DHT22;59755;43.834;4.364;2023-04-26T08:30:11;17.70;39.60
71879;DHT22;59755;43.834;4.364;2023-04-26T08:32:36;17.80;39.00
71879;DHT22;59755;43.834;4.364;2023-04-26T08:35:02;17.80;39.10
71879;DHT22;59755;43.834;4.364;2023-04-26T08:37:28;18.00;39.20
71879;DHT22;59755;43.834;4.364;2023-04-26T08:39:54;18.10;39.00
71879;DHT22;59755;43.834;4.364;2023-04-26T08:42:19;18.20;38.90
71879;DHT22;59755;43.834;4.364;2023-04-26T08:44:47;18.30;38.50
71879;DHT22;59755;43.834;4.364;2023-04-26T08:47:16;18.30;38.90
71879;DHT22;59755;43.834;4.364;2023-04-26T08:49:43;18.40;38.60
71879;DHT22;59755;43.834;4.364;2023-04-26T08:52:10;18.50;38.60
71879;DHT22;59755;43.834;4.364;2023-04-26T08:54:36;18.60;38.30
71879;DHT22;59755;43.834;4.364;2023-04-26T08:57:02;18.50;38.30
71879;DHT22;59755;43.834;4.364;2023-04-26T08:59:34;18.60;38.50
71879;DHT22;59755;43.834;4.364;2023-04-26T09:02:00;18.80;38.30
71879;DHT22;59755;43.834;4.364;2023-04-26T09:04:29;19.00;38.40
71879;DHT22;59755;43.834;4.364;2023-04-26T09:06:58;19.00;37.80
71879;DHT22;59755;43.834;4.364;2023-04-26T09:09:24;19.10;38.20
71879;DHT22;59755;43.834;4.364;2023-04-26T09:11:54;19.30;38.30
71879;DHT22;59755;43.834;4.364;2023-04-26T09:14:20;19.40;38.10
71879;DHT22;59755;43.834;4.364;2023-04-26T09:16:46;19.60;37.90
71879;DHT22;59755;43.834;4.364;2023-04-26T09:19:11;19.60;38.00
71879;DHT22;59755;43.834;4.364;2023-04-26T09:21:44;19.70;37.90
71879;DHT22;59755;43.834;4.364;2023-04-26T09:24:10;19.70;37.70
71879;DHT22;59755;43.834;4.364;2023-04-26T09:26:36;20.00;37.10
71879;DHT22;59755;43.834;4.364;2023-04-26T09:29:16;19.90;37.80
71879;DHT22;59755;43.834;4.364;2023-04-26T09:31:46;20.00;37.70
71879;DHT22;59755;43.834;4.364;2023-04-26T09:34:12;20.10;37.30
71879;DHT22;59755;43.834;4.364;2023-04-26T09:36:59;20.00;37.40
71879;DHT22;59755;43.834;4.364;2023-04-26T09:39:33;20.20;37.60
71879;DHT22;59755;43.834;4.364;2023-04-26T09:41:59;20.30;37.50
71879;DHT22;59755;43.834;4.364;2023-04-26T09:44:27;20.40;37.00
71879;DHT22;59755;43.834;4.364;2023-04-26T09:46:57;20.50;37.30
71879;DHT22;59755;43.834;4.364;2023-04-26T09:49:24;20.60;37.40
71879;DHT22;59755;43.834;4.364;2023-04-26T09:52:01;20.50;36.80
71879;DHT22;59755;43.834;4.364;2023-04-26T09:57:13;20.90;36.80
71879;DHT22;59755;43.834;4.364;2023-04-26T09:59:42;21.10;36.30
71879;DHT22;59755;43.834;4.364;2023-04-26T10:02:09;21.20;35.90
71879;DHT22;59755;43.834;4.364;2023-04-26T10:04:37;21.30;36.10
71879;DHT22;59755;43.834;4.364;2023-04-26T10:07:03;21.40;35.70
71879;DHT22;59755;43.834;4.364;2023-04-26T10:09:30;21.40;36.00
71879;DHT22;59755;43.834;4.364;2023-04-26T10:11:57;21.50;36.00
71879;DHT22;59755;43.834;4.364;2023-04-26T10:14:22;21.70;35.90
71879;DHT22;59755;43.834;4.364;2023-04-26T10:16:48;21.80;35.30
71879;DHT22;59755;43.834;4.364;2023-04-26T10:19:14;21.90;35.50
71879;DHT22;59755;43.834;4.364;2023-04-26T10:21:39;22.10;35.20
71879;DHT22;59755;43.834;4.364;2023-04-26T10:24:07;22.50;34.70
71879;DHT22;59755;43.834;4.364;2023-04-26T10:26:52;22.50;34.40
71879;DHT22;59755;43.834;4.364;2023-04-26T10:29:21;22.50;35.00
71879;DHT22;59755;43.834;4.364;2023-04-26T10:34:31;23.00;33.90
71879;DHT22;59755;43.834;4.364;2023-04-26T10:37:07;23.40;34.30
71879;DHT22;59755;43.834;4.364;2023-04-26T10:39:33;23.70;33.70
71879;DHT22;59755;43.834;4.364;2023-04-26T10:42:18;24.00;33.60
71879;DHT22;59755;43.834;4.364;2023-04-26T10:44:48;24.60;33.10
71879;DHT22;59755;43.834;4.364;2023-04-26T10:49:46;25.80;31.20
71879;DHT22;59755;43.834;4.364;2023-04-26T10:52:18;26.10;30.70
71879;DHT22;59755;43.834;4.364;2023-04-26T10:57:10;26.10;30.90
71879;DHT22;59755;43.834;4.364;2023-04-26T10:59:36;27.00;29.90
71879;DHT22;59755;43.834;4.364;2023-04-26T11:02:01;27.50;29.20
71879;DHT22;59755;43.834;4.364;2023-04-26T11:07:12;29.60;27.50
71879;DHT22;59755;43.834;4.364;2023-04-26T11:09:39;30.60;26.40
71879;DHT22;59755;43.834;4.364;2023-04-26T11:12:05;31.00;25.80
71879;DHT22;59755;43.834;4.364;2023-04-26T11:14:32;30.70;26.40
71879;DHT22;59755;43.834;4.364;2023-04-26T11:16:58;30.20;26.60
71879;DHT22;59755;43.834;4.364;2023-04-26T11:19:25;30.10;26.70
71879;DHT22;59755;43.834;4.364;2023-04-26T11:21:50;30.50;26.20
71879;DHT22;59755;43.834;4.364;2023-04-26T11:24:17;31.30;25.60
71879;DHT22;59755;43.834;4.364;2023-04-26T11:26:52;31.50;25.30
71879;DHT22;59755;43.834;4.364;2023-04-26T11:29:20;31.80;25.00
71879;DHT22;59755;43.834;4.364;2023-04-26T11:31:50;30.80;25.90
71879;DHT22;59755;43.834;4.364;2023-04-26T11:34:16;30.40;26.20
71879;DHT22;59755;43.834;4.364;2023-04-26T11:36:42;29.50;26.90
71879;DHT22;59755;43.834;4.364;2023-04-26T11:39:08;28.70;28.00
71879;DHT22;59755;43.834;4.364;2023-04-26T11:41:35;28.70;28.10
71879;DHT22;59755;43.834;4.364;2023-04-26T11:44:01;27.80;29.00
71879;DHT22;59755;43.834;4.364;2023-04-26T11:46:26;28.60;28.40
71879;DHT22;59755;43.834;4.364;2023-04-26T11:48:52;29.60;27.10
71879;DHT22;59755;43.834;4.364;2023-04-26T11:51:18;29.50;27.20
71879;DHT22;59755;43.834;4.364;2023-04-26T11:53:43;29.90;27.50
71879;DHT22;59755;43.834;4.364;2023-04-26T11:56:13;29.60;27.70
71879;DHT22;59755;43.834;4.364;2023-04-26T11:58:42;30.10;27.60
71879;DHT22;59755;43.834;4.364;2023-04-26T12:01:08;29.50;27.40
71879;DHT22;59755;43.834;4.364;2023-04-26T12:03:34;30.10;27.40
71879;DHT22;59755;43.834;4.364;2023-04-26T12:06:04;30.60;26.90
71879;DHT22;59755;43.834;4.364;2023-04-26T12:08:31;29.90;27.60
71879;DHT22;59755;43.834;4.364;2023-04-26T12:11:00;29.60;28.00
71879;DHT22;59755;43.834;4.364;2023-04-26T12:13:26;29.30;28.40
71879;DHT22;59755;43.834;4.364;2023-04-26T12:15:52;28.80;28.60
71879;DHT22;59755;43.834;4.364;2023-04-26T12:18:18;28.30;29.50
71879;DHT22;59755;43.834;4.364;2023-04-26T12:20:44;28.50;29.40
71879;DHT22;59755;43.834;4.364;2023-04-26T12:23:13;28.90;28.70
71879;DHT22;59755;43.834;4.364;2023-04-26T12:25:39;29.30;28.40
71879;DHT22;59755;43.834;4.364;2023-04-26T12:28:06;29.80;28.20
71879;DHT22;59755;43.834;4.364;2023-04-26T12:30:37;30.70;27.20
71879;DHT22;59755;43.834;4.364;2023-04-26T12:33:03;30.80;27.00
71879;DHT22;59755;43.834;4.364;2023-04-26T12:35:29;30.90;27.40
71879;DHT22;59755;43.834;4.364;2023-04-26T12:37:55;31.30;26.40
71879;DHT22;59755;43.834;4.364;2023-04-26T12:40:21;30.30;27.10
71879;DHT22;59755;43.834;4.364;2023-04-26T12:42:47;28.90;28.30
71879;DHT22;59755;43.834;4.364;2023-04-26T12:45:13;28.00;29.30
71879;DHT22;59755;43.834;4.364;2023-04-26T12:47:39;27.00;30.50
71879;DHT22;59755;43.834;4.364;2023-04-26T12:50:05;26.70;30.70
71879;DHT22;59755;43.834;4.364;2023-04-26T12:52:31;26.90;30.80
71879;DHT22;59755;43.834;4.364;2023-04-26T12:54:57;26.60;31.00
71879;DHT22;59755;43.834;4.364;2023-04-26T12:57:22;27.40;30.40
71879;DHT22;59755;43.834;4.364;2023-04-26T12:59:48;27.20;30.50
71879;DHT22;59755;43.834;4.364;2023-04-26T13:02:14;27.60;30.30
71879;DHT22;59755;43.834;4.364;2023-04-26T13:04:39;28.70;29.30
71879;DHT22;59755;43.834;4.364;2023-04-26T13:07:05;29.70;28.10
71879;DHT22;59755;43.834;4.364;2023-04-26T13:09:31;29.40;28.40
71879;DHT22;59755;43.834;4.364;2023-04-26T13:11:57;28.40;29.30
71879;DHT22;59755;43.834;4.364;2023-04-26T13:14:22;28.30;30.30
71879;DHT22;59755;43.834;4.364;2023-04-26T13:16:49;29.00;29.60
71879;DHT22;59755;43.834;4.364;2023-04-26T13:19:14;30.10;28.30
71879;DHT22;59755;43.834;4.364;2023-04-26T13:21:41;30.80;27.40
71879;DHT22;59755;43.834;4.364;2023-04-26T13:24:07;31.50;27.00
71879;DHT22;59755;43.834;4.364;2023-04-26T13:26:32;32.50;26.20
71879;DHT22;59755;43.834;4.364;2023-04-26T15:06:22;26.30;37.40
71879;DHT22;59755;43.834;4.364;2023-04-26T15:08:48;26.00;37.40
71879;DHT22;59755;43.834;4.364;2023-04-26T15:11:14;25.80;37.70
71879;DHT22;59755;43.834;4.364;2023-04-26T15:13:40;25.50;38.20
71879;DHT22;59755;43.834;4.364;2023-04-26T15:16:06;25.40;38.90
71879;DHT22;59755;43.834;4.364;2023-04-26T15:18:31;25.10;39.30
71879;DHT22;59755;43.834;4.364;2023-04-26T15:20:58;25.10;39.50
71879;DHT22;59755;43.834;4.364;2023-04-26T15:23:24;25.00;39.50
71879;DHT22;59755;43.834;4.364;2023-04-26T15:25:49;24.90;39.80
71879;DHT22;59755;43.834;4.364;2023-04-26T15:28:15;24.90;40.10
71879;DHT22;59755;43.834;4.364;2023-04-26T15:30:41;24.60;41.10
71879;DHT22;59755;43.834;4.364;2023-04-26T15:33:07;24.30;41.90
71879;DHT22;59755;43.834;4.364;2023-04-26T15:35:33;24.20;42.20
71879;DHT22;59755;43.834;4.364;2023-04-26T15:37:59;24.00;43.50
71879;DHT22;59755;43.834;4.364;2023-04-26T15:40:25;23.90;43.60
71879;DHT22;59755;43.834;4.364;2023-04-26T15:42:52;23.50;45.20
71879;DHT22;59755;43.834;4.364;2023-04-26T15:45:18;23.30;45.60
71879;DHT22;59755;43.834;4.364;2023-04-26T15:47:44;23.30;45.80
71879;DHT22;59755;43.834;4.364;2023-04-26T15:50:10;23.30;46.70
71879;DHT22;59755;43.834;4.364;2023-04-26T15:52:36;23.10;47.00
71879;DHT22;59755;43.834;4.364;2023-04-26T15:55:02;23.10;46.90
71879;DHT22;59755;43.834;4.364;2023-04-26T15:57:28;23.10;46.90
71879;DHT22;59755;43.834;4.364;2023-04-26T15:59:54;23.00;47.50
71879;DHT22;59755;43.834;4.364;2023-04-26T16:02:19;22.90;48.20
71879;DHT22;59755;43.834;4.364;2023-04-26T16:04:46;22.80;48.00
71879;DHT22;59755;43.834;4.364;2023-04-26T16:07:11;22.70;48.30
71879;DHT22;59755;43.834;4.364;2023-04-26T16:09:37;22.50;48.90
71879;DHT22;59755;43.834;4.364;2023-04-26T16:12:03;22.40;49.70
71879;DHT22;59755;43.834;4.364;2023-04-26T16:14:31;22.30;50.20
71879;DHT22;59755;43.834;4.364;2023-04-26T16:16:56;21.90;51.20
71879;DHT22;59755;43.834;4.364;2023-04-26T16:19:22;21.90;51.50
71879;DHT22;59755;43.834;4.364;2023-04-26T16:21:48;22.00;51.50
71879;DHT22;59755;43.834;4.364;2023-04-26T16:24:14;22.00;52.10
71879;DHT22;59755;43.834;4.364;2023-04-26T16:26:40;21.90;52.20
71879;DHT22;59755;43.834;4.364;2023-04-26T16:29:06;21.80;52.50
71879;DHT22;59755;43.834;4.364;2023-04-26T16:31:32;21.70;52.80
71879;DHT22;59755;43.834;4.364;2023-04-26T16:33:57;21.60;53.10
71879;DHT22;59755;43.834;4.364;2023-04-26T16:36:23;21.50;53.30
71879;DHT22;59755;43.834;4.364;2023-04-26T16:38:49;21.40;53.40
71879;DHT22;59755;43.834;4.364;2023-04-26T16:41:15;21.40;53.30
71879;DHT22;59755;43.834;4.364;2023-04-26T16:43:41;21.40;53.30
71879;DHT22;59755;43.834;4.364;2023-04-26T16:46:07;21.40;53.60
71879;DHT22;59755;43.834;4.364;2023-04-26T16:48:36;21.40;53.70
71879;DHT22;59755;43.834;4.364;2023-04-26T16:51:03;21.40;53.70
71879;DHT22;59755;43.834;4.364;2023-04-26T16:53:29;21.30;53.90
71879;DHT22;59755;43.834;4.364;2023-04-26T16:55:55;21.30;54.20
71879;DHT22;59755;43.834;4.364;2023-04-26T16:58:21;21.20;54.30
71879;DHT22;59755;43.834;4.364;2023-04-26T17:00:46;21.30;54.40
71879;DHT22;59755;43.834;4.364;2023-04-26T17:03:12;21.20;54.70
71879;DHT22;59755;43.834;4.364;2023-04-26T17:05:41;21.20;54.80
71879;DHT22;59755;43.834;4.364;2023-04-26T17:08:08;21.10;55.20
71879;DHT22;59755;43.834;4.364;2023-04-26T17:10:34;21.10;55.30
71879;DHT22;59755;43.834;4.364;2023-04-26T17:13:00;21.00;55.70
71879;DHT22;59755;43.834;4.364;2023-04-26T17:15:26;20.90;56.00
71879;DHT22;59755;43.834;4.364;2023-04-26T17:17:52;20.70;56.60
71879;DHT22;59755;43.834;4.364;2023-04-26T17:20:17;20.70;56.80